createdAt,value
2019-02-16T00:01:40.514Z,8.70
2019-02-16T00:04:09.547Z,5.60
2019-02-16T00:06:38.477Z,5.57
2019-02-16T00:09:07.481Z,4.20
2019-02-16T00:11:36.399Z,7.73
2019-02-16T00:14:05.335Z,4.23
2019-02-16T00:16:34.251Z,5.50
2019-02-16T00:19:03.167Z,6.50
2019-02-16T00:21:32.105Z,12.70
2019-02-16T00:24:01.017Z,5.40
2019-02-16T00:26:29.947Z,5.07
2019-02-16T00:28:58.884Z,8.03
2019-02-16T00:31:27.881Z,9.07
2019-02-16T00:33:57.066Z,6.40
2019-02-16T00:36:26.030Z,6.80
2019-02-16T00:38:54.960Z,3.20
2019-02-16T00:41:23.914Z,4.50
2019-02-16T00:43:52.765Z,4.47
2019-02-16T00:46:21.611Z,7.07
2019-02-16T00:48:50.471Z,2.70
2019-02-16T00:51:19.447Z,3.10
2019-02-16T00:53:48.374Z,4.03
2019-02-16T00:56:17.288Z,4.83
2019-02-16T00:58:46.143Z,7.03
2019-02-16T01:01:15.066Z,3.97
2019-02-16T01:03:43.990Z,42.80
2019-02-16T01:06:13.000Z,5.50
2019-02-16T01:08:41.842Z,5.70
2019-02-16T01:11:10.794Z,2.73
2019-02-16T01:13:39.818Z,2.97
2019-02-16T01:16:09.098Z,3.80
2019-02-16T01:18:37.948Z,3.93
2019-02-16T01:21:06.879Z,2.83
2019-02-16T01:23:35.826Z,3.80
2019-02-16T01:26:04.744Z,2.47
2019-02-16T01:28:33.702Z,3.20
2019-02-16T01:31:02.686Z,5.37
2019-02-16T01:33:31.525Z,2.63
2019-02-16T01:36:00.378Z,2.80
2019-02-16T01:38:29.226Z,4.17
2019-02-16T01:40:58.072Z,3.60
2019-02-16T01:43:27.085Z,3.27
2019-02-16T01:45:56.189Z,4.30
2019-02-16T01:48:25.032Z,2.97
2019-02-16T01:50:53.885Z,6.40
2019-02-16T01:53:22.878Z,4.23
2019-02-16T01:55:51.720Z,3.20
2019-02-16T01:58:20.660Z,4.97
2019-02-16T02:00:49.510Z,6.20
2019-02-16T02:03:18.429Z,11.70
2019-02-16T02:05:47.378Z,6.33
2019-02-16T02:08:16.709Z,10.80
2019-02-16T02:10:45.634Z,4.20
2019-02-16T02:13:14.510Z,4.00
2019-02-16T02:15:43.373Z,8.53
2019-02-16T02:18:12.318Z,3.70
2019-02-16T02:20:41.346Z,6.60
2019-02-16T02:23:10.261Z,4.17
2019-02-16T02:25:39.181Z,2.83
2019-02-16T02:28:08.113Z,7.73
2019-02-16T02:30:37.027Z,6.93
2019-02-16T02:33:05.951Z,6.37
2019-02-16T02:35:34.969Z,6.77
2019-02-16T02:38:03.878Z,4.10
2019-02-16T02:40:32.790Z,6.70
2019-02-16T02:43:01.713Z,3.03
2019-02-16T02:45:30.934Z,13.33
2019-02-16T02:47:59.867Z,9.70
2019-02-16T02:50:28.814Z,5.33
2019-02-16T02:52:57.739Z,10.50
2019-02-16T02:55:26.661Z,4.37
2019-02-16T02:57:55.537Z,7.40
2019-02-16T03:00:24.535Z,6.00
2019-02-16T03:02:55.152Z,4.13
2019-02-16T03:05:24.118Z,5.17
2019-02-16T03:07:52.957Z,3.67
2019-02-16T03:10:21.887Z,5.93
2019-02-16T03:12:50.766Z,5.23
2019-02-16T03:15:19.621Z,3.50
2019-02-16T03:17:48.495Z,6.33
2019-02-16T03:20:17.485Z,5.03
2019-02-16T03:23:12.195Z,4.97
2019-02-16T03:25:42.689Z,4.67
2019-02-16T03:28:34.702Z,12.13
2019-02-16T03:31:48.071Z,6.43
2019-02-16T03:34:21.055Z,6.50
2019-02-16T03:37:23.182Z,6.23
2019-02-16T03:39:52.083Z,5.47
2019-02-16T03:42:21.076Z,7.67
2019-02-16T03:44:49.988Z,4.17
2019-02-16T03:47:19.007Z,7.53
2019-02-16T03:49:48.006Z,5.07
2019-02-16T03:52:17.024Z,7.93
2019-02-16T03:54:45.881Z,7.87
2019-02-16T03:57:14.881Z,7.30
2019-02-16T03:59:43.722Z,5.67
2019-02-16T04:02:12.794Z,6.90
2019-02-16T04:04:41.714Z,6.40
2019-02-16T04:07:10.727Z,10.13
2019-02-16T04:09:39.590Z,4.60
2019-02-16T04:12:08.588Z,11.00
2019-02-16T04:14:37.524Z,8.67
2019-02-16T04:17:06.456Z,6.87
2019-02-16T04:19:35.378Z,3.90
2019-02-16T04:22:04.441Z,4.23
2019-02-16T04:24:33.781Z,7.80
2019-02-16T04:27:02.720Z,7.83
2019-02-16T04:29:31.565Z,5.17
2019-02-16T04:32:00.878Z,12.70
2019-02-16T04:34:30.097Z,8.97
2019-02-16T04:36:59.033Z,6.47
2019-02-16T04:39:28.305Z,5.23
2019-02-16T04:41:57.562Z,8.50
2019-02-16T04:44:26.478Z,7.03
2019-02-16T04:46:55.495Z,11.33
2019-02-16T04:49:24.328Z,9.97
2019-02-16T04:51:53.186Z,5.93
2019-02-16T04:54:22.211Z,4.30
2019-02-16T04:56:51.157Z,10.03
2019-02-16T04:59:20.073Z,4.50
2019-02-16T05:01:49.702Z,8.50
2019-02-16T05:04:18.690Z,7.80
2019-02-16T05:06:47.547Z,5.47
2019-02-16T05:09:16.445Z,6.20
2019-02-16T05:11:45.440Z,6.27
2019-02-16T05:14:14.369Z,5.17
2019-02-16T05:16:43.411Z,5.73
2019-02-16T05:19:12.361Z,8.10
2019-02-16T05:21:41.280Z,5.97
2019-02-16T05:24:10.461Z,6.53
2019-02-16T05:26:39.394Z,7.83
2019-02-16T05:29:08.519Z,15.83
2019-02-16T05:31:37.374Z,5.90
2019-02-16T05:34:06.635Z,7.00
2019-02-16T05:36:35.486Z,5.10
2019-02-16T05:39:05.347Z,5.63
2019-02-16T05:41:34.287Z,16.03
2019-02-16T05:44:03.270Z,7.97
2019-02-16T05:46:32.135Z,5.97
2019-02-16T05:49:00.989Z,7.30
2019-02-16T05:51:29.985Z,7.20
2019-02-16T05:53:58.918Z,7.17
2019-02-16T05:56:27.778Z,7.03
2019-02-16T05:58:56.637Z,22.17
2019-02-16T06:01:25.742Z,5.83
2019-02-16T06:03:54.673Z,7.90
2019-02-16T06:06:23.598Z,10.03
2019-02-16T06:08:52.486Z,4.20
2019-02-16T06:11:21.343Z,6.53
2019-02-16T06:13:50.280Z,16.43
2019-02-16T06:16:19.330Z,10.43
2019-02-16T06:18:48.574Z,6.80
2019-02-16T06:21:17.507Z,5.07
2019-02-16T06:23:46.390Z,7.20
2019-02-16T06:26:15.322Z,9.97
2019-02-16T06:28:44.241Z,6.97
2019-02-16T06:31:13.310Z,8.83
2019-02-16T06:33:42.261Z,12.30
2019-02-16T06:36:17.221Z,28.73
2019-02-16T06:38:46.081Z,20.53
2019-02-16T06:41:15.022Z,15.57
2019-02-16T06:43:44.035Z,49.13
2019-02-16T06:46:12.976Z,13.90
2019-02-16T06:48:41.828Z,11.97
2019-02-16T06:51:10.729Z,8.50
2019-02-16T06:53:39.606Z,23.50
2019-02-16T06:56:30.818Z,17.83
2019-02-16T06:58:59.875Z,7.60
2019-02-16T07:01:28.978Z,8.20
2019-02-16T07:03:58.038Z,8.10
2019-02-16T07:06:26.971Z,7.27
2019-02-16T07:08:55.818Z,9.57
2019-02-16T07:11:24.686Z,8.43
2019-02-16T07:13:53.597Z,7.50
2019-02-16T07:16:47.914Z,6.00
2019-02-16T07:19:32.380Z,11.70
2019-02-16T07:22:01.331Z,5.30
2019-02-16T07:24:30.599Z,9.00
2019-02-16T07:26:59.591Z,10.10
2019-02-16T07:29:28.873Z,12.60
2019-02-16T07:31:57.795Z,4.90
2019-02-16T07:34:26.729Z,10.93
2019-02-16T07:36:55.642Z,7.20
2019-02-16T07:39:24.562Z,32.50
2019-02-16T07:41:53.421Z,10.60
2019-02-16T07:44:44.546Z,12.07
2019-02-16T07:47:34.516Z,11.50
2019-02-16T07:50:24.926Z,9.87
2019-02-16T07:53:30.966Z,18.67
2019-02-16T07:56:24.333Z,38.20
2019-02-16T07:59:02.126Z,29.23
2019-02-16T08:01:50.309Z,8.07
2019-02-16T08:04:26.767Z,5.70
2019-02-16T08:07:08.314Z,4.43
2019-02-16T08:09:59.302Z,7.50
2019-02-16T08:12:41.338Z,4.37
2019-02-16T08:15:35.449Z,5.90
2019-02-16T08:18:22.842Z,12.07
2019-02-16T08:21:13.610Z,12.63
2019-02-16T08:23:53.494Z,4.10
2019-02-16T08:26:48.070Z,8.80
2019-02-16T08:29:36.066Z,14.17
2019-02-16T08:32:23.296Z,9.90
2019-02-16T08:34:57.874Z,8.27
2019-02-16T08:37:36.778Z,6.93
2019-02-16T08:40:34.523Z,10.93
2019-02-16T08:43:34.938Z,6.00
2019-02-16T08:46:24.794Z,5.30
2019-02-16T08:49:04.567Z,12.10
2019-02-16T08:51:59.621Z,7.57
2019-02-16T08:54:47.543Z,10.60
2019-02-16T08:57:34.673Z,7.73
2019-02-16T09:00:35.281Z,5.10
2019-02-16T09:03:19.002Z,8.43
2019-02-16T09:05:57.354Z,45.07
2019-02-16T09:08:45.487Z,11.07
2019-02-16T09:11:33.552Z,17.30
2019-02-16T09:14:09.373Z,6.57
2019-02-16T09:16:45.399Z,9.47
2019-02-16T09:19:42.339Z,7.23
2019-02-16T09:22:25.682Z,10.30
2019-02-16T09:25:19.348Z,7.27
2019-02-16T09:28:05.955Z,5.20
2019-02-16T09:30:46.221Z,15.23
2019-02-16T09:33:33.495Z,8.23
2019-02-16T09:36:17.341Z,7.07
2019-02-16T09:39:08.442Z,5.40
2019-02-16T09:42:02.242Z,8.67
2019-02-16T09:44:48.822Z,9.40
2019-02-16T09:47:39.842Z,6.17
2019-02-16T09:50:17.853Z,8.17
2019-02-16T09:53:21.294Z,9.43
2019-02-16T09:56:08.166Z,7.07
2019-02-16T09:59:11.654Z,11.80
2019-02-16T10:02:08.919Z,6.53
2019-02-16T10:04:55.717Z,11.90
2019-02-16T10:07:43.642Z,9.80
2019-02-16T10:10:41.691Z,9.13
2019-02-16T10:13:38.877Z,7.67
2019-02-16T10:16:33.325Z,7.67
2019-02-16T10:19:36.462Z,11.80
2019-02-16T10:22:16.754Z,8.33
2019-02-16T10:25:00.473Z,12.70
2019-02-16T10:27:48.569Z,11.23
2019-02-16T10:30:28.729Z,8.00
2019-02-16T10:33:22.678Z,11.17
2019-02-16T10:35:58.022Z,14.23
2019-02-16T10:38:46.399Z,11.80
2019-02-16T10:41:34.393Z,15.03
2019-02-16T10:44:31.487Z,10.67
2019-02-16T10:47:18.367Z,19.00
2019-02-16T10:50:03.518Z,21.73
2019-02-16T10:52:48.910Z,53.70
2019-02-16T10:55:36.943Z,19.20
2019-02-16T10:58:36.958Z,54.77
2019-02-16T11:01:23.661Z,36.27
2019-02-16T11:04:08.653Z,33.60
2019-02-16T11:06:49.809Z,27.33
2019-02-16T11:09:52.901Z,14.80
2019-02-16T11:12:35.521Z,13.07
2019-02-16T11:15:30.780Z,19.97
2019-02-16T11:18:07.689Z,15.80
2019-02-16T11:20:47.434Z,23.20
2019-02-16T11:23:35.446Z,15.20
2019-02-16T11:26:13.782Z,24.63
2019-02-16T11:29:04.885Z,19.27
2019-02-16T11:32:05.252Z,10.70
2019-02-16T11:34:44.654Z,23.40
2019-02-16T11:37:18.460Z,11.20
2019-02-16T11:40:18.700Z,12.97
2019-02-16T11:43:09.969Z,12.33
2019-02-16T11:46:04.217Z,11.20
2019-02-16T11:48:43.931Z,12.53
2019-02-16T11:51:30.957Z,20.17
2019-02-16T11:54:18.172Z,25.87
2019-02-16T11:57:10.598Z,26.17
2019-02-16T12:00:04.667Z,15.57
2019-02-16T12:02:45.168Z,12.87
2019-02-16T12:05:36.723Z,16.43
2019-02-16T12:08:28.402Z,15.27
2019-02-16T12:11:06.818Z,16.57
2019-02-16T12:14:07.043Z,19.30
2019-02-16T12:17:01.352Z,22.60
2019-02-16T12:19:42.918Z,15.57
2019-02-16T12:22:40.066Z,14.77
2019-02-16T12:25:19.814Z,22.30
2019-02-16T12:28:10.971Z,21.30
2019-02-16T12:30:58.980Z,16.63
2019-02-16T12:33:53.131Z,13.13
2019-02-16T12:36:49.018Z,14.07
2019-02-16T12:39:33.690Z,14.10
2019-02-16T12:42:27.522Z,17.07
2019-02-16T12:45:02.115Z,14.07
2019-02-16T12:47:48.974Z,14.67
2019-02-16T12:50:25.290Z,14.07
2019-02-16T12:53:31.777Z,16.67
2019-02-16T12:56:16.531Z,19.50
2019-02-16T12:59:07.555Z,26.40
2019-02-16T13:01:54.399Z,19.27
2019-02-16T13:04:34.321Z,14.97
2019-02-16T13:07:21.276Z,20.27
2019-02-16T13:09:57.039Z,19.30
2019-02-16T13:12:53.976Z,16.80
2019-02-16T13:15:48.115Z,16.20
2019-02-16T13:18:26.022Z,14.47
2019-02-16T13:21:12.977Z,20.50
2019-02-16T13:24:03.918Z,20.80
2019-02-16T13:26:48.865Z,17.90
2019-02-16T13:29:37.431Z,16.80
2019-02-16T13:32:14.736Z,16.10
2019-02-16T13:35:01.604Z,24.30
2019-02-16T13:37:55.770Z,39.50
2019-02-16T13:40:32.993Z,30.87
2019-02-16T13:43:14.086Z,23.50
2019-02-16T13:46:02.014Z,25.17
2019-02-16T13:48:54.052Z,20.90
2019-02-16T13:51:29.689Z,20.57
2019-02-16T13:54:13.153Z,20.50
2019-02-16T13:56:52.758Z,18.97
2019-02-16T13:59:34.957Z,19.40
2019-02-16T14:02:21.908Z,16.20
2019-02-16T14:05:04.857Z,22.20
2019-02-16T14:07:41.429Z,26.70
2019-02-16T14:10:20.416Z,26.40
2019-02-16T14:13:07.551Z,17.23
2019-02-16T14:15:54.470Z,18.60
2019-02-16T14:18:23.378Z,21.93
2019-02-16T14:20:52.386Z,27.17
2019-02-16T14:23:21.354Z,18.67
2019-02-16T14:25:50.700Z,19.23
2019-02-16T14:28:19.824Z,17.10
2019-02-16T14:30:48.691Z,18.47
2019-02-16T14:33:17.740Z,15.30
2019-02-16T14:35:46.582Z,19.43
2019-02-16T14:38:27.204Z,22.07
2019-02-16T14:40:56.149Z,17.10
2019-02-16T14:43:25.213Z,17.03
2019-02-16T14:45:54.170Z,17.63
2019-02-16T14:48:23.097Z,16.63
2019-02-16T14:50:55.342Z,19.30
2019-02-16T14:53:24.284Z,16.87
2019-02-16T14:55:54.437Z,17.40
2019-02-16T14:58:23.532Z,21.07
2019-02-16T15:00:52.408Z,23.10
2019-02-16T15:03:21.329Z,16.13
2019-02-16T15:05:50.327Z,20.93
2019-02-16T15:08:19.292Z,16.10
2019-02-16T15:10:48.306Z,19.00
2019-02-16T15:13:17.230Z,9.50
2019-02-16T15:15:46.161Z,9.90
2019-02-16T15:18:15.004Z,10.70
2019-02-16T15:20:43.940Z,11.33
2019-02-16T15:23:12.830Z,11.33
2019-02-16T15:25:41.811Z,11.73
2019-02-16T15:28:10.746Z,23.50
2019-02-16T15:30:39.707Z,35.87
2019-02-16T15:33:08.782Z,41.40
2019-02-16T15:35:37.710Z,23.90
2019-02-16T15:38:06.657Z,16.73
2019-02-16T15:40:35.974Z,19.57
2019-02-16T15:43:04.895Z,20.93
2019-02-16T15:45:33.834Z,16.83
2019-02-16T15:48:02.845Z,20.33
2019-02-16T15:50:31.692Z,18.93
2019-02-16T15:53:00.578Z,24.87
2019-02-16T15:55:29.445Z,18.50
2019-02-16T15:57:58.341Z,19.67
2019-02-16T16:00:27.848Z,20.40
2019-02-16T16:02:56.852Z,24.20
2019-02-16T16:05:26.079Z,25.37
2019-02-16T16:08:22.785Z,24.47
2019-02-16T16:11:00.815Z,34.27
2019-02-16T16:13:47.555Z,40.33
2019-02-16T16:16:34.437Z,47.40
2019-02-16T16:19:11.398Z,53.37
2019-02-16T16:22:02.578Z,53.13
2019-02-16T16:25:05.848Z,43.87
2019-02-16T16:27:55.605Z,43.20
2019-02-16T16:30:41.522Z,53.63
2019-02-16T16:33:29.609Z,96.27
2019-02-16T16:36:19.450Z,26.10
2019-02-16T16:38:55.396Z,18.87
2019-02-16T16:41:42.286Z,23.27
2019-02-16T16:44:33.389Z,15.10
2019-02-16T16:47:24.693Z,15.60
2019-02-16T16:50:19.190Z,14.87
2019-02-16T16:53:14.509Z,12.03
2019-02-16T16:55:51.685Z,25.50
2019-02-16T16:58:36.505Z,19.00
2019-02-16T17:01:34.060Z,17.63
2019-02-16T17:04:20.025Z,20.73
2019-02-16T17:07:20.162Z,25.50
2019-02-16T17:10:20.300Z,20.10
2019-02-16T17:13:14.065Z,23.00
2019-02-16T17:16:07.963Z,17.13
2019-02-16T17:18:54.729Z,25.20
2019-02-16T17:21:51.870Z,16.83
2019-02-16T17:24:41.729Z,14.47
2019-02-16T17:27:35.743Z,11.63
2019-02-16T17:30:24.225Z,22.63
2019-02-16T17:33:05.346Z,19.20
2019-02-16T17:35:43.240Z,10.10
2019-02-16T17:38:37.189Z,10.53
2019-02-16T17:41:23.926Z,12.30
2019-02-16T17:44:21.231Z,13.63
2019-02-16T17:47:01.433Z,9.30
2019-02-16T17:49:42.115Z,12.50
2019-02-16T17:52:39.158Z,11.07
2019-02-16T17:55:39.540Z,9.13
2019-02-16T17:58:13.335Z,10.37
2019-02-16T18:00:51.487Z,10.00
2019-02-16T18:03:38.302Z,9.73
2019-02-16T18:06:25.021Z,8.17
2019-02-16T18:09:05.798Z,10.03
2019-02-16T18:11:59.813Z,11.30
2019-02-16T18:14:46.370Z,11.93
2019-02-16T18:17:42.814Z,5.50
2019-02-16T18:20:20.823Z,7.70
2019-02-16T18:23:07.890Z,12.60
2019-02-16T18:25:42.230Z,7.47
2019-02-16T18:28:38.920Z,7.03
2019-02-16T18:31:25.649Z,7.00
2019-02-16T18:34:16.632Z,8.53
2019-02-16T18:37:11.120Z,8.93
2019-02-16T18:40:05.658Z,9.07
2019-02-16T18:43:08.833Z,6.30
2019-02-16T18:45:51.272Z,7.30
2019-02-16T18:48:38.323Z,8.00
2019-02-16T18:51:32.557Z,7.07
2019-02-16T18:54:20.316Z,8.30
2019-02-16T18:57:07.250Z,9.23
2019-02-16T19:00:04.366Z,6.30
2019-02-16T19:02:44.170Z,3.90
2019-02-16T19:05:41.899Z,6.90
2019-02-16T19:08:38.715Z,5.60
2019-02-16T19:11:32.488Z,5.10
2019-02-16T19:14:11.440Z,12.63
2019-02-16T19:17:02.590Z,7.10
2019-02-16T19:19:54.588Z,5.60
2019-02-16T19:22:39.255Z,7.40
2019-02-16T19:25:45.819Z,8.77
2019-02-16T19:28:33.816Z,6.93
2019-02-16T19:31:27.578Z,5.30
2019-02-16T19:34:20.058Z,7.30
2019-02-16T19:37:17.666Z,9.80
2019-02-16T19:40:23.761Z,7.80
2019-02-16T19:43:14.680Z,15.50
2019-02-16T19:45:52.289Z,6.27
2019-02-16T19:48:27.702Z,8.60
2019-02-16T19:51:34.158Z,8.97
2019-02-16T19:54:16.837Z,12.20
2019-02-16T19:57:01.883Z,12.57
2019-02-16T19:59:49.861Z,11.00
2019-02-16T20:02:38.679Z,9.33
2019-02-16T20:05:22.939Z,8.60
2019-02-16T20:07:59.803Z,7.73
2019-02-16T20:10:38.845Z,7.57
2019-02-16T20:13:29.855Z,7.27
2019-02-16T20:16:19.874Z,9.03
2019-02-16T20:18:56.905Z,11.37
2019-02-16T20:21:43.718Z,6.07
2019-02-16T20:24:29.415Z,6.43
2019-02-16T20:27:16.348Z,6.07
2019-02-16T20:30:15.504Z,8.90
2019-02-16T20:33:02.740Z,8.00
2019-02-16T20:35:44.240Z,8.90
2019-02-16T20:38:31.084Z,7.80
2019-02-16T20:41:19.061Z,7.90
2019-02-16T20:44:01.005Z,11.13
2019-02-16T20:46:41.854Z,5.53
2019-02-16T20:49:30.275Z,6.90
2019-02-16T20:52:13.002Z,8.53
2019-02-16T20:54:57.723Z,7.07
2019-02-16T20:57:55.033Z,11.90
2019-02-16T21:00:42.972Z,10.00
2019-02-16T21:03:43.415Z,8.63
2019-02-16T21:06:33.681Z,6.37
2019-02-16T21:09:30.687Z,7.60
2019-02-16T21:12:06.470Z,7.03
2019-02-16T21:14:42.615Z,4.93
2019-02-16T21:17:29.781Z,7.53
2019-02-16T21:20:17.850Z,6.43
2019-02-16T21:23:04.785Z,4.80
2019-02-16T21:25:52.118Z,8.07
2019-02-16T21:28:30.951Z,8.67
2019-02-16T21:31:28.019Z,5.90
2019-02-16T21:34:10.843Z,6.50
2019-02-16T21:36:56.923Z,6.47
2019-02-16T21:39:40.551Z,6.63
2019-02-16T21:42:31.333Z,6.40
2019-02-16T21:45:10.584Z,5.93
2019-02-16T21:47:57.421Z,5.33
2019-02-16T21:50:44.613Z,8.93
2019-02-16T21:53:21.989Z,8.80
2019-02-16T21:56:22.165Z,6.43
2019-02-16T21:59:19.196Z,6.97
2019-02-16T22:01:52.782Z,13.03
2019-02-16T22:04:39.705Z,12.53
2019-02-16T22:07:43.056Z,14.80
2019-02-16T22:10:23.449Z,16.50
2019-02-16T22:13:09.594Z,30.60
2019-02-16T22:15:38.585Z,24.97
2019-02-16T22:18:07.613Z,11.90
2019-02-16T22:20:36.542Z,9.53
2019-02-16T22:23:05.390Z,6.77
2019-02-16T22:25:34.581Z,13.63
2019-02-16T22:28:03.789Z,8.40
2019-02-16T22:30:32.701Z,6.13
2019-02-16T22:33:01.577Z,15.63
2019-02-16T22:35:30.433Z,16.37
2019-02-16T22:37:59.442Z,7.07
2019-02-16T22:40:28.753Z,16.70
2019-02-16T22:42:57.638Z,9.50
2019-02-16T22:45:26.561Z,7.13
2019-02-16T22:47:55.489Z,13.07
2019-02-16T22:50:24.453Z,6.77
2019-02-16T22:52:53.637Z,5.73
2019-02-16T22:55:22.485Z,8.50
2019-02-16T22:57:51.341Z,7.83
2019-02-16T23:00:37.282Z,8.07
2019-02-16T23:03:08.326Z,7.27
2019-02-16T23:05:37.268Z,6.47
2019-02-16T23:08:06.310Z,5.67
2019-02-16T23:10:35.578Z,6.40
2019-02-16T23:13:04.878Z,6.93
2019-02-16T23:15:33.879Z,10.87
2019-02-16T23:18:02.818Z,4.23
2019-02-16T23:20:31.986Z,4.70
2019-02-16T23:23:00.915Z,10.33
2019-02-16T23:25:29.924Z,3.87
2019-02-16T23:27:59.269Z,8.33
2019-02-16T23:30:28.268Z,7.07
2019-02-16T23:32:57.277Z,5.50
2019-02-16T23:35:26.259Z,4.63
2019-02-16T23:37:55.679Z,5.80
2019-02-16T23:40:24.760Z,4.70
2019-02-16T23:42:54.111Z,5.27
2019-02-16T23:45:23.027Z,5.30
2019-02-16T23:47:52.046Z,5.40
2019-02-16T23:50:21.033Z,6.03
2019-02-16T23:52:49.974Z,5.43
2019-02-16T23:55:18.930Z,4.33
2019-02-16T23:57:47.851Z,4.13
